Herzlich willkommen!

Am freundlichen Bodensee-Flugplatz zwischen Schwarzwald, Rhein und Alpen.

Anflug auf den Flugplatz Konstanz

Aktuelles

18.10.2017
Winterpause
In der Zeit von 18. Dez. 2017 bis 31. Jan. 2018 ist der Verkehrslandeplatz von der Betriebspflicht befreit. In dieser Zeit gilt eine PPR Regelung. Wir wünschen Allen ein schönes Weihnachtsfest und ein gutes neues Jahr. Flugleitung EDTZ

Live am Platz

Die Bilder unserer Webcams werden alle 5 Minuten aktualisiert.

Sonnenaufgang:

06:36 UTC / 07:36 Lokal

Sonnenuntergang:

15:42 UTC / 16:42 Lokal

METAR (21.11.2017 09:50 UTC):

EDNY 210950Z VRB03KT 9999 OVC056 08/03 Q1020
VFR

TAF (21.11.2017 05:00 UTC):

TAF EDNY 210500Z 2106/2206 24008KT 9999 OVC040 BECMG 2115/2116 VRB03KT

Alle Angaben unverbindlich und ohne Gewähr. Zeiten genähert.

Für den Verkehrslandeplatz Konstanz werden keine offiziellen Wetterinformationen herausgegeben. Daher werden zur Orientierung Daten des nahegelegenen Flughafens Friedrichshafen dargestellt.